createdAt,value
2018-06-10T00:02:05.928Z,9.27
2018-06-10T00:04:41.008Z,11.03
2018-06-10T00:07:16.188Z,10.77
2018-06-10T00:09:51.224Z,9.97
2018-06-10T00:12:26.355Z,10.07
2018-06-10T00:15:01.422Z,10.50
2018-06-10T00:17:36.532Z,10.43
2018-06-10T00:20:12.296Z,10.37
2018-06-10T00:22:47.413Z,10.13
2018-06-10T00:25:22.421Z,10.87
2018-06-10T00:27:57.428Z,10.70
2018-06-10T00:30:32.552Z,11.10
2018-06-10T00:33:08.071Z,10.77
2018-06-10T00:35:42.896Z,9.97
2018-06-10T00:38:17.904Z,11.47
2018-06-10T00:40:52.943Z,11.70
2018-06-10T00:43:27.977Z,11.40
2018-06-10T00:46:03.188Z,12.20
2018-06-10T00:48:38.182Z,12.33
2018-06-10T00:51:13.116Z,12.43
2018-06-10T00:53:48.232Z,11.90
2018-06-10T00:56:34.600Z,13.17
2018-06-10T00:59:09.772Z,11.80
2018-06-10T01:01:44.793Z,12.07
2018-06-10T01:04:19.947Z,11.83
2018-06-10T01:06:55.076Z,12.93
2018-06-10T01:09:30.192Z,12.27
2018-06-10T01:12:05.160Z,11.90
2018-06-10T01:14:40.312Z,11.40
2018-06-10T01:17:15.263Z,10.77
2018-06-10T01:19:50.257Z,12.30
2018-06-10T01:22:25.428Z,12.40
2018-06-10T01:25:00.489Z,13.23
2018-06-10T01:27:35.623Z,12.20
2018-06-10T01:30:10.717Z,11.67
2018-06-10T01:32:45.964Z,12.27
2018-06-10T01:35:20.869Z,11.43
2018-06-10T01:37:55.908Z,10.80
2018-06-10T01:40:30.843Z,11.90
2018-06-10T01:43:05.912Z,12.20
2018-06-10T01:45:41.032Z,12.00
2018-06-10T01:48:16.040Z,11.83
2018-06-10T01:50:51.199Z,11.70
2018-06-10T01:53:26.287Z,11.93
2018-06-10T01:56:01.385Z,12.57
2018-06-10T01:58:36.333Z,12.60
2018-06-10T02:01:11.647Z,12.70
2018-06-10T02:03:46.779Z,12.63
2018-06-10T02:06:21.911Z,13.27
2018-06-10T02:08:56.848Z,12.17
2018-06-10T02:11:31.861Z,13.33
2018-06-10T02:14:06.887Z,14.03
2018-06-10T02:16:41.996Z,13.97
2018-06-10T02:19:16.982Z,13.77
2018-06-10T02:21:52.179Z,15.00
2018-06-10T02:24:27.180Z,14.30
2018-06-10T02:27:02.197Z,14.83
2018-06-10T02:29:37.244Z,12.50
2018-06-10T02:32:12.328Z,12.53
2018-06-10T02:34:47.521Z,12.60
2018-06-10T02:37:22.635Z,10.93
2018-06-10T02:39:57.680Z,11.43
2018-06-10T02:42:32.797Z,11.37
2018-06-10T02:45:07.908Z,10.73
2018-06-10T02:47:43.123Z,11.50
2018-06-10T02:50:18.100Z,11.87
2018-06-10T02:52:53.075Z,11.80
2018-06-10T02:55:28.150Z,11.90
2018-06-10T02:58:03.540Z,11.70
2018-06-10T03:00:38.568Z,13.77
2018-06-10T03:03:13.621Z,12.77
2018-06-10T03:05:48.547Z,13.67
2018-06-10T03:08:23.686Z,14.57
2018-06-10T03:10:59.041Z,11.93
2018-06-10T03:13:34.066Z,14.67
2018-06-10T03:16:09.308Z,15.23
2018-06-10T03:18:44.404Z,16.67
2018-06-10T03:21:19.597Z,16.97
2018-06-10T03:23:54.625Z,16.43
2018-06-10T03:26:29.673Z,16.50
2018-06-10T03:29:04.739Z,16.60
2018-06-10T03:31:39.901Z,16.30
2018-06-10T03:34:14.848Z,16.87
2018-06-10T03:36:49.983Z,16.90
2018-06-10T03:39:24.913Z,17.47
2018-06-10T03:42:00.148Z,16.90
2018-06-10T03:44:35.237Z,18.37
2018-06-10T03:47:10.280Z,19.27
2018-06-10T03:49:45.364Z,18.93
2018-06-10T03:52:20.297Z,21.33
2018-06-10T03:54:55.320Z,18.93
2018-06-10T03:57:30.339Z,20.87
2018-06-10T04:00:05.504Z,20.77
2018-06-10T04:02:40.728Z,20.83
2018-06-10T04:05:15.840Z,21.27
2018-06-10T04:07:50.835Z,21.33
2018-06-10T04:10:25.952Z,18.67
2018-06-10T04:13:01.466Z,22.63
2018-06-10T04:15:36.396Z,21.70
2018-06-10T04:18:11.579Z,20.17
2018-06-10T04:20:46.716Z,21.10
2018-06-10T04:23:21.868Z,20.87
2018-06-10T04:25:56.946Z,22.07
2018-06-10T04:28:32.042Z,21.37
2018-06-10T04:31:07.180Z,22.60
2018-06-10T04:33:42.187Z,23.40
2018-06-10T04:36:17.286Z,22.10
2018-06-10T04:38:52.247Z,23.43
2018-06-10T04:41:27.236Z,22.10
2018-06-10T04:44:02.195Z,23.07
2018-06-10T04:46:37.157Z,22.93
2018-06-10T04:49:12.240Z,23.00
2018-06-10T04:51:47.235Z,23.17
2018-06-10T04:54:22.352Z,22.17
2018-06-10T04:56:57.403Z,23.33
2018-06-10T04:59:32.383Z,24.97
2018-06-10T05:02:07.614Z,25.30
2018-06-10T05:04:42.644Z,23.53
2018-06-10T05:07:17.750Z,25.60
2018-06-10T05:09:52.676Z,24.90
2018-06-10T05:12:27.868Z,23.83
2018-06-10T05:15:02.818Z,26.80
2018-06-10T05:17:37.640Z,26.17
2018-06-10T05:20:12.737Z,25.17
2018-06-10T05:22:47.720Z,27.47
2018-06-10T05:25:22.791Z,23.87
2018-06-10T05:27:57.931Z,25.37
2018-06-10T05:30:33.055Z,26.87
2018-06-10T05:33:08.115Z,27.70
2018-06-10T05:35:43.084Z,25.30
2018-06-10T05:38:18.044Z,26.13
2018-06-10T05:40:52.976Z,26.50
2018-06-10T05:43:28.116Z,24.10
2018-06-10T05:46:03.200Z,24.13
2018-06-10T05:48:38.213Z,22.77
2018-06-10T05:51:13.298Z,24.57
2018-06-10T05:53:48.396Z,23.17
2018-06-10T05:56:23.464Z,24.13
2018-06-10T05:58:58.472Z,22.73
2018-06-10T06:01:33.524Z,24.40
2018-06-10T06:04:08.520Z,21.10
2018-06-10T06:06:43.511Z,22.50
2018-06-10T06:09:18.629Z,22.17
2018-06-10T06:11:53.548Z,22.33
2018-06-10T06:14:28.707Z,20.67
2018-06-10T06:17:03.719Z,23.67
2018-06-10T06:19:38.790Z,21.80
2018-06-10T06:22:13.870Z,22.90
2018-06-10T06:24:48.848Z,22.83
2018-06-10T06:27:23.943Z,23.37
2018-06-10T06:29:58.999Z,20.43
2018-06-10T06:32:34.001Z,16.63
2018-06-10T06:35:09.060Z,19.97
2018-06-10T06:37:44.196Z,21.03
2018-06-10T06:40:19.187Z,19.13
2018-06-10T06:42:54.299Z,21.97
2018-06-10T06:45:29.303Z,21.80
2018-06-10T06:48:04.520Z,19.77
2018-06-10T06:50:39.589Z,21.13
2018-06-10T06:53:14.746Z,20.57
2018-06-10T06:55:49.693Z,20.47
2018-06-10T06:58:25.352Z,20.87
2018-06-10T07:01:00.361Z,20.80
2018-06-10T07:03:35.459Z,19.37
2018-06-10T07:06:11.521Z,19.53
2018-06-10T07:08:46.652Z,20.33
2018-06-10T07:11:21.812Z,20.63
2018-06-10T07:13:58.136Z,19.20
2018-06-10T07:16:34.199Z,19.70
2018-06-10T07:19:10.145Z,22.13
2018-06-10T07:21:46.231Z,19.67
2018-06-10T07:24:22.201Z,18.90
2018-06-10T07:26:57.958Z,17.63
2018-06-10T07:29:34.132Z,18.57
2018-06-10T07:32:09.941Z,19.00
2018-06-10T07:34:48.277Z,19.07
2018-06-10T07:37:23.228Z,14.33
2018-06-10T07:39:58.166Z,17.90
2018-06-10T07:42:33.087Z,18.63
2018-06-10T07:45:07.892Z,18.10
2018-06-10T07:47:42.940Z,14.70
2018-06-10T07:50:18.072Z,16.87
2018-06-10T07:52:53.127Z,17.00
2018-06-10T07:55:28.278Z,17.17
2018-06-10T07:58:03.431Z,17.33
2018-06-10T08:00:38.609Z,15.60
2018-06-10T08:03:13.559Z,14.57
2018-06-10T08:05:48.804Z,14.23
2018-06-10T08:08:23.903Z,16.40
2018-06-10T08:10:58.995Z,15.33
2018-06-10T08:13:34.127Z,13.90
2018-06-10T08:16:09.169Z,11.87
2018-06-10T08:18:44.391Z,13.83
2018-06-10T08:21:19.599Z,11.10
2018-06-10T08:23:54.652Z,12.03
2018-06-10T08:26:29.699Z,11.97
2018-06-10T08:29:05.735Z,10.37
2018-06-10T08:31:40.856Z,11.87
2018-06-10T08:34:15.944Z,13.37
2018-06-10T08:36:51.120Z,11.13
2018-06-10T08:39:26.207Z,9.87
2018-06-10T08:42:01.216Z,13.30
2018-06-10T08:44:36.375Z,12.13
2018-06-10T08:47:11.441Z,10.17
2018-06-10T08:49:46.521Z,11.63
2018-06-10T08:52:21.752Z,14.00
2018-06-10T08:54:56.931Z,10.97
2018-06-10T08:57:32.132Z,12.27
2018-06-10T09:00:07.376Z,10.50
2018-06-10T09:02:42.438Z,13.83
2018-06-10T09:05:17.408Z,14.90
2018-06-10T09:07:52.572Z,13.87
2018-06-10T09:10:27.660Z,14.87
2018-06-10T09:13:02.628Z,13.47
2018-06-10T09:15:37.627Z,14.33
2018-06-10T09:18:12.656Z,11.97
2018-06-10T09:20:47.632Z,11.53
2018-06-10T09:23:22.595Z,12.07
2018-06-10T09:25:57.588Z,12.70
2018-06-10T09:28:32.621Z,12.40
2018-06-10T09:31:07.667Z,12.97
2018-06-10T09:33:42.716Z,13.47
2018-06-10T09:36:17.808Z,14.30
2018-06-10T09:38:52.848Z,11.57
2018-06-10T09:41:27.974Z,11.07
2018-06-10T09:44:03.357Z,12.20
2018-06-10T09:46:38.269Z,12.03
2018-06-10T09:49:13.384Z,12.03
2018-06-10T09:51:48.588Z,11.03
2018-06-10T09:54:23.739Z,13.53
2018-06-10T09:56:58.863Z,14.53
2018-06-10T09:59:34.208Z,15.83
2018-06-10T10:02:09.291Z,13.90
2018-06-10T10:04:44.404Z,14.90
2018-06-10T10:07:19.525Z,14.17
2018-06-10T10:09:54.488Z,14.30
2018-06-10T10:12:29.494Z,13.90
2018-06-10T10:15:04.629Z,11.60
2018-06-10T10:17:39.768Z,14.50
2018-06-10T10:20:14.837Z,13.47
2018-06-10T10:22:50.011Z,15.60
2018-06-10T10:25:24.968Z,16.80
2018-06-10T10:28:00.132Z,15.97
2018-06-10T10:30:35.227Z,16.47
2018-06-10T10:33:10.348Z,13.57
2018-06-10T10:35:45.457Z,14.80
2018-06-10T10:38:20.680Z,13.83
2018-06-10T10:40:55.784Z,15.03
2018-06-10T10:43:30.931Z,15.77
2018-06-10T10:46:06.016Z,15.67
2018-06-10T10:48:41.036Z,13.63
2018-06-10T10:51:16.036Z,12.90
2018-06-10T10:53:51.008Z,11.27
2018-06-10T10:56:26.080Z,9.33
2018-06-10T10:59:01.107Z,14.17
2018-06-10T11:01:36.276Z,12.30
2018-06-10T11:04:11.392Z,9.20
2018-06-10T11:06:46.553Z,7.73
2018-06-10T11:09:21.652Z,12.57
2018-06-10T11:11:56.794Z,8.97
2018-06-10T11:14:31.756Z,6.50
2018-06-10T11:17:06.883Z,6.57
2018-06-10T11:19:41.820Z,13.10
2018-06-10T11:22:16.929Z,9.23
2018-06-10T11:24:51.996Z,13.07
2018-06-10T11:27:27.106Z,16.00
2018-06-10T11:30:02.093Z,15.23
2018-06-10T11:32:37.165Z,10.80
2018-06-10T11:35:12.236Z,15.90
2018-06-10T11:37:47.337Z,15.03
2018-06-10T11:40:22.486Z,15.80
2018-06-10T11:42:57.560Z,9.30
2018-06-10T11:45:32.473Z,16.17
2018-06-10T11:48:07.536Z,7.63
2018-06-10T11:50:42.491Z,14.23
2018-06-10T11:53:17.652Z,8.97
2018-06-10T11:55:52.681Z,7.83
2018-06-10T11:58:27.660Z,21.33
2018-06-10T12:01:02.723Z,9.63
2018-06-10T12:03:37.813Z,10.30
2018-06-10T12:06:12.956Z,10.80
2018-06-10T12:08:48.107Z,11.60
2018-06-10T12:11:23.052Z,8.50
2018-06-10T12:13:57.973Z,8.50
2018-06-10T12:16:33.134Z,9.03
2018-06-10T12:19:08.120Z,12.30
2018-06-10T12:21:43.176Z,9.23
2018-06-10T12:24:18.124Z,9.50
2018-06-10T12:26:53.279Z,14.40
2018-06-10T12:29:28.455Z,19.03
2018-06-10T12:32:03.456Z,15.83
2018-06-10T12:34:39.092Z,10.20
2018-06-10T12:37:14.204Z,10.67
2018-06-10T12:39:49.284Z,19.23
2018-06-10T12:42:24.348Z,12.13
2018-06-10T12:44:59.337Z,18.50
2018-06-10T12:47:34.492Z,17.13
2018-06-10T12:50:09.660Z,16.93
2018-06-10T12:52:44.661Z,17.77
2018-06-10T12:55:19.875Z,17.67
2018-06-10T12:57:55.004Z,17.27
2018-06-10T13:00:30.130Z,16.07
2018-06-10T13:03:05.333Z,14.93
2018-06-10T13:05:40.500Z,14.30
2018-06-10T13:08:16.826Z,14.13
2018-06-10T13:10:51.948Z,15.17
2018-06-10T13:13:26.984Z,13.73
2018-06-10T13:16:02.161Z,14.73
2018-06-10T13:18:37.280Z,13.63
2018-06-10T13:21:12.265Z,13.17
2018-06-10T13:23:47.324Z,12.13
2018-06-10T13:26:22.435Z,12.83
2018-06-10T13:28:57.604Z,10.20
2018-06-10T13:31:32.747Z,12.20
2018-06-10T13:34:07.792Z,13.00
2018-06-10T13:36:42.864Z,12.57
2018-06-10T13:39:18.024Z,13.57
2018-06-10T13:41:53.021Z,13.07
2018-06-10T13:44:28.080Z,12.67
2018-06-10T13:47:03.397Z,12.27
2018-06-10T13:49:38.307Z,13.17
2018-06-10T13:52:13.365Z,12.67
2018-06-10T13:54:48.424Z,12.20
2018-06-10T13:57:23.846Z,11.23
2018-06-10T13:59:58.964Z,12.70
2018-06-10T14:02:33.817Z,10.90
2018-06-10T14:05:08.720Z,11.33
2018-06-10T14:07:43.884Z,11.33
2018-06-10T14:10:18.960Z,11.23
2018-06-10T14:12:53.977Z,9.70
2018-06-10T14:15:29.048Z,9.07
2018-06-10T14:18:04.125Z,12.07
2018-06-10T14:20:39.366Z,10.30
2018-06-10T14:23:14.608Z,11.20
2018-06-10T14:25:49.744Z,10.17
2018-06-10T14:28:25.713Z,10.10
2018-06-10T14:31:01.005Z,11.40
2018-06-10T14:33:36.077Z,11.17
2018-06-10T14:36:11.258Z,11.20
2018-06-10T14:38:46.331Z,9.60
2018-06-10T14:41:21.448Z,10.20
2018-06-10T14:43:56.616Z,8.90
2018-06-10T14:46:31.595Z,11.20
2018-06-10T14:49:06.597Z,10.83
2018-06-10T14:51:41.977Z,11.20
2018-06-10T14:54:17.197Z,11.40
2018-06-10T14:56:52.272Z,9.57
2018-06-10T14:59:27.404Z,10.60
2018-06-10T15:02:02.575Z,9.03
2018-06-10T15:04:37.557Z,9.80
2018-06-10T15:07:12.644Z,9.40
2018-06-10T15:09:47.464Z,9.20
2018-06-10T15:12:22.376Z,8.60
2018-06-10T15:14:57.520Z,9.23
2018-06-10T15:17:32.644Z,8.60
2018-06-10T15:20:07.795Z,8.87
2018-06-10T15:22:42.888Z,9.07
2018-06-10T15:25:18.012Z,9.07
2018-06-10T15:27:53.061Z,8.67
2018-06-10T15:30:28.032Z,9.17
2018-06-10T15:33:02.945Z,8.70
2018-06-10T15:35:37.924Z,9.00
2018-06-10T15:38:13.044Z,8.57
2018-06-10T15:40:48.049Z,8.90
2018-06-10T15:43:23.179Z,8.23
2018-06-10T15:45:58.312Z,8.20
2018-06-10T15:48:33.425Z,9.10
2018-06-10T15:51:08.574Z,8.57
2018-06-10T15:53:43.701Z,8.67
2018-06-10T15:56:18.599Z,7.83
2018-06-10T15:58:53.649Z,7.97
2018-06-10T16:01:28.811Z,7.83
2018-06-10T16:04:03.872Z,8.13
2018-06-10T16:06:39.012Z,7.63
2018-06-10T16:09:14.164Z,7.03
2018-06-10T16:11:49.264Z,7.60
2018-06-10T16:14:24.192Z,7.60
2018-06-10T16:16:59.372Z,6.83
2018-06-10T16:19:34.452Z,6.97
2018-06-10T16:22:09.626Z,6.47
2018-06-10T16:24:44.700Z,6.87
2018-06-10T16:27:19.648Z,6.50
2018-06-10T16:29:54.792Z,7.07
2018-06-10T16:32:29.759Z,6.90
2018-06-10T16:35:04.860Z,6.33
2018-06-10T16:37:39.944Z,6.57
2018-06-10T16:40:15.112Z,6.63
2018-06-10T16:42:50.107Z,6.47
2018-06-10T16:45:25.165Z,5.93
2018-06-10T16:48:00.348Z,6.63
2018-06-10T16:50:35.312Z,6.70
2018-06-10T16:53:10.477Z,6.87
2018-06-10T16:55:45.488Z,7.23
2018-06-10T16:58:20.688Z,6.60
2018-06-10T17:00:55.861Z,7.27
2018-06-10T17:03:30.992Z,6.50
2018-06-10T17:06:06.115Z,7.40
2018-06-10T17:08:41.184Z,6.50
2018-06-10T17:11:16.300Z,6.90
2018-06-10T17:13:51.345Z,6.90
2018-06-10T17:16:26.565Z,6.93
2018-06-10T17:19:01.916Z,7.00
2018-06-10T17:21:37.007Z,7.17
2018-06-10T17:24:11.951Z,6.83
2018-06-10T17:26:47.144Z,6.87
2018-06-10T17:29:22.256Z,6.70
2018-06-10T17:31:57.213Z,7.00
2018-06-10T17:34:32.340Z,6.73
2018-06-10T17:37:07.440Z,7.33
2018-06-10T17:39:42.539Z,7.10
2018-06-10T17:42:17.761Z,7.60
2018-06-10T17:44:52.816Z,7.60
2018-06-10T17:47:27.957Z,7.17
2018-06-10T17:50:03.002Z,8.27
2018-06-10T17:52:38.123Z,7.93
2018-06-10T17:55:13.109Z,8.07
2018-06-10T17:57:48.228Z,7.53
2018-06-10T18:00:23.224Z,8.90
2018-06-10T18:02:58.360Z,8.47
2018-06-10T18:05:33.468Z,8.70
2018-06-10T18:08:08.548Z,8.77
2018-06-10T18:10:43.580Z,9.33
2018-06-10T18:13:18.639Z,9.53
2018-06-10T18:15:53.753Z,9.57
2018-06-10T18:18:28.856Z,9.37
2018-06-10T18:21:04.151Z,9.40
2018-06-10T18:23:39.067Z,10.20
2018-06-10T18:26:14.233Z,10.63
2018-06-10T18:28:49.484Z,9.90
2018-06-10T18:31:24.460Z,9.73
2018-06-10T18:33:59.604Z,10.03
2018-06-10T18:36:34.763Z,9.90
2018-06-10T18:39:09.772Z,10.17
2018-06-10T18:41:44.856Z,11.10
2018-06-10T18:44:19.735Z,10.30
2018-06-10T18:46:54.596Z,10.93
2018-06-10T18:49:29.717Z,9.27
2018-06-10T18:52:04.795Z,10.23
2018-06-10T18:54:39.901Z,11.00
2018-06-10T18:57:14.888Z,11.60
2018-06-10T18:59:50.013Z,11.03
2018-06-10T19:02:25.160Z,11.83
2018-06-10T19:05:00.246Z,11.50
2018-06-10T19:07:35.367Z,11.03
2018-06-10T19:10:10.536Z,12.07
2018-06-10T19:12:45.477Z,10.67
2018-06-10T19:15:20.628Z,11.83
2018-06-10T19:17:55.800Z,11.27
2018-06-10T19:20:30.916Z,11.53
2018-06-10T19:23:05.937Z,12.07
2018-06-10T19:25:41.080Z,12.47
2018-06-10T19:28:16.121Z,10.83
2018-06-10T19:30:51.217Z,11.80
2018-06-10T19:33:26.336Z,12.90
2018-06-10T19:36:01.389Z,11.43
2018-06-10T19:38:36.616Z,12.67
2018-06-10T19:41:11.748Z,12.87
2018-06-10T19:43:46.828Z,13.13
2018-06-10T19:46:21.826Z,12.90
2018-06-10T19:48:56.776Z,12.20
2018-06-10T19:51:31.910Z,13.17
2018-06-10T19:54:06.962Z,13.60
2018-06-10T19:56:42.052Z,12.93
2018-06-10T19:59:17.150Z,13.80
2018-06-10T20:01:52.132Z,12.27
2018-06-10T20:04:28.075Z,11.87
2018-06-10T20:07:03.083Z,12.20
2018-06-10T20:09:38.255Z,13.17
2018-06-10T20:12:13.328Z,12.57
2018-06-10T20:14:48.476Z,12.10
2018-06-10T20:17:23.607Z,12.03
2018-06-10T20:19:58.748Z,12.27
2018-06-10T20:22:33.768Z,12.67
2018-06-10T20:25:08.805Z,12.97
2018-06-10T20:27:43.639Z,13.10
2018-06-10T20:30:18.496Z,13.10
2018-06-10T20:32:53.558Z,12.10
2018-06-10T20:35:28.522Z,13.60
2018-06-10T20:38:03.688Z,12.90
2018-06-10T20:40:38.948Z,13.03
2018-06-10T20:43:14.181Z,14.17
2018-06-10T20:45:49.177Z,13.57
2018-06-10T20:48:24.171Z,14.10
2018-06-10T20:50:59.069Z,14.10
2018-06-10T20:53:34.004Z,14.03
2018-06-10T20:56:09.052Z,15.50
2018-06-10T20:58:44.144Z,14.53
2018-06-10T21:01:19.204Z,14.67
2018-06-10T21:03:54.319Z,15.23
2018-06-10T21:06:29.444Z,14.57
2018-06-10T21:09:06.768Z,14.67
2018-06-10T21:11:42.001Z,16.20
2018-06-10T21:14:16.939Z,15.90
2018-06-10T21:16:52.078Z,15.17
2018-06-10T21:19:27.256Z,14.80
2018-06-10T21:22:02.475Z,14.87
2018-06-10T21:24:37.560Z,15.50
2018-06-10T21:27:12.733Z,15.30
2018-06-10T21:29:47.810Z,14.20
2018-06-10T21:32:22.936Z,15.50
2018-06-10T21:34:58.015Z,14.60
2018-06-10T21:37:33.250Z,14.27
2018-06-10T21:40:08.356Z,14.70
2018-06-10T21:42:43.523Z,14.07
2018-06-10T21:45:18.687Z,14.13
2018-06-10T21:47:53.791Z,13.27
2018-06-10T21:50:28.756Z,14.00
2018-06-10T21:53:03.888Z,15.03
2018-06-10T21:55:38.952Z,15.00
2018-06-10T21:58:14.138Z,14.17
2018-06-10T22:00:49.176Z,14.87
2018-06-10T22:03:24.196Z,14.63
2018-06-10T22:05:59.376Z,14.10
2018-06-10T22:08:34.435Z,14.17
2018-06-10T22:11:09.312Z,14.23
2018-06-10T22:13:44.357Z,13.63
2018-06-10T22:16:19.420Z,13.70
2018-06-10T22:18:54.588Z,14.50
2018-06-10T22:21:29.632Z,13.37
2018-06-10T22:24:04.996Z,13.90
2018-06-10T22:26:39.907Z,14.00
2018-06-10T22:29:14.990Z,13.77
2018-06-10T22:31:50.136Z,13.10
2018-06-10T22:34:25.268Z,12.93
2018-06-10T22:37:00.318Z,13.80
2018-06-10T22:39:35.337Z,12.70
2018-06-10T22:42:10.319Z,13.43
2018-06-10T22:44:45.440Z,14.07
2018-06-10T22:47:20.703Z,13.10
2018-06-10T22:49:55.774Z,13.93
2018-06-10T22:52:30.839Z,13.47
2018-06-10T22:55:05.992Z,13.60
2018-06-10T22:57:41.084Z,14.37
2018-06-10T23:00:16.053Z,14.03
2018-06-10T23:02:51.217Z,14.23
2018-06-10T23:05:26.320Z,14.43
2018-06-10T23:08:01.353Z,14.50
2018-06-10T23:10:36.360Z,15.07
2018-06-10T23:13:11.437Z,14.43
2018-06-10T23:15:46.369Z,14.60
2018-06-10T23:18:21.464Z,14.30
2018-06-10T23:20:56.485Z,14.47
2018-06-10T23:23:31.644Z,13.53
2018-06-10T23:26:06.653Z,14.33
2018-06-10T23:28:41.803Z,14.63
2018-06-10T23:31:16.936Z,14.20
2018-06-10T23:33:52.025Z,14.40
2018-06-10T23:36:27.020Z,14.17
2018-06-10T23:39:02.148Z,14.23
2018-06-10T23:41:37.200Z,14.57
2018-06-10T23:44:12.289Z,14.60
2018-06-10T23:46:47.276Z,14.27
2018-06-10T23:49:22.475Z,14.63
2018-06-10T23:51:57.507Z,14.30
2018-06-10T23:54:32.660Z,13.93
2018-06-10T23:57:07.498Z,14.43
2018-06-10T23:59:42.520Z,14.70
